Terminal Aerodrome Forecast
Issued by NWS

Home | Current Version | Previous Version | Text Only | Print | Product List | Glossary Off
Versions: 1 2 3 4 5 6 7 8 9 10 11 12 13 14 15 16 17 18 19 20 21

000
FTUS43 KPAH 010140 AAA
TAFOWB
TAF AMD
KOWB 010140Z 0102/0124 17005KT P6SM VCSH OVC090
     FM010300 16003KT P6SM OVC025
      TEMPO 0107/0108 4SM BR
     FM010800 18002KT 2SM BR OVC030
     FM011300 22003KT P6SM OVC016
     FM011700 20004KT P6SM BKN021
      AMD NOT SKED 0103/0111=

USA.gov is the U.S. government's official web portal to all federal, state and local government web resources and services.